createdAt,value
2019-03-16T00:02:07.344Z,73.34
2019-03-16T00:04:37.304Z,73.40
2019-03-16T00:07:06.967Z,73.33
2019-03-16T00:09:36.919Z,73.48
2019-03-16T00:12:06.591Z,73.42
2019-03-16T00:14:36.301Z,73.31
2019-03-16T00:17:07.027Z,73.18
2019-03-16T00:19:36.967Z,72.87
2019-03-16T00:22:06.900Z,73.14
2019-03-16T00:24:36.574Z,73.05
2019-03-16T00:27:06.252Z,72.84
2019-03-16T00:29:36.074Z,72.58
2019-03-16T00:32:13.446Z,72.62
2019-03-16T00:34:42.193Z,72.68
2019-03-16T00:37:13.349Z,72.55
2019-03-16T00:39:43.027Z,72.63
2019-03-16T00:42:12.884Z,72.43
2019-03-16T00:44:42.531Z,72.55
2019-03-16T00:47:12.447Z,72.68
2019-03-16T00:49:43.429Z,72.57
2019-03-16T00:52:13.497Z,72.54
2019-03-16T00:54:43.169Z,72.64
2019-03-16T00:57:13.084Z,72.65
2019-03-16T00:59:43.013Z,72.65
2019-03-16T01:02:26.118Z,72.74
2019-03-16T01:04:44.389Z,72.60
2019-03-16T01:07:14.218Z,72.67
2019-03-16T01:09:44.244Z,72.37
2019-03-16T01:12:14.150Z,72.36
2019-03-16T01:14:43.854Z,72.56
2019-03-16T01:17:13.771Z,72.51
2019-03-16T01:19:43.451Z,72.56
2019-03-16T01:22:13.291Z,72.36
2019-03-16T01:24:42.966Z,72.53
2019-03-16T01:27:12.647Z,72.29
2019-03-16T01:29:42.327Z,72.17
2019-03-16T01:32:12.009Z,72.24
2019-03-16T01:34:44.219Z,71.87
2019-03-16T01:37:13.428Z,71.66
2019-03-16T01:39:43.335Z,71.41
2019-03-16T01:42:13.990Z,71.29
2019-03-16T01:44:43.665Z,71.02
2019-03-16T01:47:13.345Z,70.91
2019-03-16T01:49:43.020Z,70.39
2019-03-16T01:52:13.652Z,70.06
2019-03-16T01:54:43.327Z,69.94
2019-03-16T01:57:13.001Z,69.80
2019-03-16T01:59:42.672Z,69.53
2019-03-16T02:02:12.336Z,69.84
2019-03-16T02:04:42.096Z,69.92
2019-03-16T02:07:11.998Z,69.58
2019-03-16T02:09:41.695Z,69.23
2019-03-16T02:12:11.390Z,69.23
2019-03-16T02:14:41.076Z,69.18
2019-03-16T02:17:10.857Z,69.28
2019-03-16T02:19:41.544Z,69.30
2019-03-16T02:22:11.220Z,69.17
2019-03-16T02:24:40.898Z,69.09
2019-03-16T02:27:10.561Z,68.92
2019-03-16T02:29:40.221Z,68.87
2019-03-16T02:32:09.932Z,69.05
2019-03-16T02:34:39.663Z,69.30
2019-03-16T02:37:09.344Z,69.24
2019-03-16T02:39:39.286Z,69.21
2019-03-16T02:42:08.971Z,69.04
2019-03-16T02:44:38.606Z,69.13
2019-03-16T02:47:08.757Z,69.23
2019-03-16T02:49:38.558Z,69.28
2019-03-16T02:52:08.446Z,69.38
2019-03-16T02:54:38.121Z,69.47
2019-03-16T02:57:07.778Z,69.75
2019-03-16T02:59:37.451Z,69.80
2019-03-16T03:02:07.238Z,69.88
2019-03-16T03:04:36.908Z,70.03
2019-03-16T03:07:06.597Z,70.30
2019-03-16T03:09:44.849Z,70.62
2019-03-16T03:12:14.616Z,70.84
2019-03-16T03:14:44.296Z,71.03
2019-03-16T03:17:13.955Z,71.25
2019-03-16T03:19:43.653Z,71.53
2019-03-16T03:22:13.320Z,71.83
2019-03-16T03:24:44.452Z,72.06
2019-03-16T03:27:14.532Z,72.25
2019-03-16T03:29:44.597Z,72.54
2019-03-16T03:32:14.271Z,72.66
2019-03-16T03:34:43.956Z,72.96
2019-03-16T03:37:13.706Z,73.11
2019-03-16T03:39:43.399Z,73.24
2019-03-16T03:42:13.049Z,73.39
2019-03-16T03:44:43.003Z,73.54
2019-03-16T03:47:13.882Z,73.68
2019-03-16T03:49:43.724Z,73.78
2019-03-16T03:52:13.432Z,74.01
2019-03-16T03:54:43.316Z,74.21
2019-03-16T03:57:12.978Z,74.36
2019-03-16T03:59:42.722Z,74.62
2019-03-16T04:02:12.413Z,74.75
2019-03-16T04:04:42.146Z,74.73
2019-03-16T04:07:11.891Z,74.87
2019-03-16T04:09:41.581Z,75.19
2019-03-16T04:12:11.554Z,75.24
2019-03-16T04:14:41.213Z,75.17
2019-03-16T04:17:10.984Z,75.31
2019-03-16T04:19:40.662Z,75.39
2019-03-16T04:22:10.526Z,75.48
2019-03-16T04:24:40.276Z,75.63
2019-03-16T04:27:16.415Z,75.90
2019-03-16T04:29:41.328Z,76.02
2019-03-16T04:32:11.000Z,75.97
2019-03-16T04:34:40.687Z,75.85
2019-03-16T04:37:10.355Z,75.94
2019-03-16T04:39:40.256Z,75.94
2019-03-16T04:42:09.935Z,75.94
2019-03-16T04:44:39.607Z,76.09
2019-03-16T04:47:09.355Z,76.31
2019-03-16T04:49:39.023Z,76.37
2019-03-16T04:52:09.023Z,76.16
2019-03-16T04:54:38.950Z,73.85
2019-03-16T04:57:08.947Z,74.13
2019-03-16T04:59:39.849Z,74.26
2019-03-16T05:02:09.520Z,74.45
2019-03-16T05:04:42.796Z,72.83
2019-03-16T05:07:11.599Z,72.49
2019-03-16T05:09:41.519Z,72.67
2019-03-16T05:12:11.213Z,73.11
2019-03-16T05:14:40.895Z,71.02
2019-03-16T05:17:10.562Z,71.83
2019-03-16T05:19:40.502Z,71.83
2019-03-16T05:22:10.164Z,72.56
2019-03-16T05:24:40.090Z,72.62
2019-03-16T05:27:09.869Z,72.62
2019-03-16T05:29:39.559Z,71.43
2019-03-16T05:32:09.265Z,70.97
2019-03-16T05:34:39.055Z,71.19
2019-03-16T05:37:08.707Z,71.16
2019-03-16T05:39:39.603Z,71.12
2019-03-16T05:42:09.285Z,71.05
2019-03-16T05:44:39.471Z,71.73
2019-03-16T05:47:09.406Z,71.96
2019-03-16T05:49:39.079Z,71.90
2019-03-16T05:52:08.740Z,72.13
2019-03-16T05:54:38.658Z,72.43
2019-03-16T05:57:08.368Z,72.29
2019-03-16T05:59:38.075Z,72.48
2019-03-16T06:02:08.080Z,72.61
2019-03-16T06:04:38.714Z,72.72
2019-03-16T06:07:08.390Z,72.84
2019-03-16T06:09:38.079Z,73.21
2019-03-16T06:12:08.151Z,73.15
2019-03-16T06:14:37.836Z,73.27
2019-03-16T06:17:07.646Z,73.67
2019-03-16T06:19:37.580Z,73.99
2019-03-16T06:22:07.246Z,74.48
2019-03-16T06:24:36.913Z,75.07
2019-03-16T06:27:06.570Z,76.32
2019-03-16T06:29:36.233Z,77.15
2019-03-16T06:32:05.908Z,77.63
2019-03-16T06:34:36.555Z,77.71
2019-03-16T06:37:06.279Z,77.93
2019-03-16T06:39:36.219Z,78.02
2019-03-16T06:42:05.979Z,78.21
2019-03-16T06:44:35.666Z,78.54
2019-03-16T06:47:05.401Z,78.89
2019-03-16T06:49:35.110Z,79.10
2019-03-16T06:52:05.246Z,79.49
2019-03-16T06:54:34.952Z,79.79
2019-03-16T06:57:04.775Z,79.96
2019-03-16T06:59:34.641Z,80.28
2019-03-16T07:02:04.916Z,80.77
2019-03-16T07:04:34.861Z,81.29
2019-03-16T07:07:06.126Z,81.48
2019-03-16T07:09:35.790Z,81.72
2019-03-16T07:12:05.529Z,81.94
2019-03-16T07:14:35.202Z,82.47
2019-03-16T07:17:05.127Z,83.10
2019-03-16T07:19:34.821Z,83.43
2019-03-16T07:22:05.125Z,83.63
2019-03-16T07:24:35.308Z,84.03
2019-03-16T07:27:05.277Z,84.10
2019-03-16T07:29:34.961Z,84.19
2019-03-16T07:32:05.163Z,84.62
2019-03-16T07:34:35.086Z,84.86
2019-03-16T07:37:05.726Z,85.32
2019-03-16T07:39:35.399Z,86.00
2019-03-16T07:42:05.158Z,86.27
2019-03-16T07:44:34.838Z,86.72
2019-03-16T07:47:05.220Z,86.89
2019-03-16T07:49:34.927Z,86.82
2019-03-16T07:52:05.188Z,86.88
2019-03-16T07:54:35.132Z,86.92
2019-03-16T07:57:05.034Z,86.98
2019-03-16T07:59:37.091Z,87.39
2019-03-16T08:02:06.213Z,87.60
2019-03-16T08:04:37.495Z,88.00
2019-03-16T08:07:07.172Z,88.45
2019-03-16T08:09:37.678Z,88.79
2019-03-16T08:12:07.501Z,88.89
2019-03-16T08:14:37.345Z,88.92
2019-03-16T08:17:07.347Z,89.08
2019-03-16T08:19:37.117Z,89.23
2019-03-16T08:22:06.900Z,89.11
2019-03-16T08:24:36.825Z,89.17
2019-03-16T08:27:07.652Z,89.23
2019-03-16T08:29:37.792Z,89.13
2019-03-16T08:32:07.486Z,89.04
2019-03-16T08:34:37.674Z,88.98
2019-03-16T08:37:07.860Z,89.17
2019-03-16T08:39:37.858Z,89.20
2019-03-16T08:42:07.785Z,89.09
2019-03-16T08:44:37.501Z,89.21
2019-03-16T08:47:07.180Z,89.41
2019-03-16T08:49:37.111Z,89.56
2019-03-16T08:52:06.894Z,89.80
2019-03-16T08:54:36.987Z,90.13
2019-03-16T08:57:07.263Z,90.20
2019-03-16T08:59:37.119Z,90.69
2019-03-16T09:02:06.861Z,90.72
2019-03-16T09:04:36.658Z,90.79
2019-03-16T09:07:06.337Z,91.03
2019-03-16T09:09:36.069Z,91.19
2019-03-16T09:12:05.733Z,91.29
2019-03-16T09:14:35.744Z,91.54
2019-03-16T09:17:05.511Z,91.55
2019-03-16T09:19:35.263Z,91.59
2019-03-16T09:22:05.052Z,91.59
2019-03-16T09:24:34.745Z,91.69
2019-03-16T09:27:05.354Z,91.75
2019-03-16T09:29:35.220Z,91.61
2019-03-16T09:32:05.005Z,91.64
2019-03-16T09:34:34.702Z,91.59
2019-03-16T09:37:04.935Z,91.53
2019-03-16T09:39:34.623Z,91.38
2019-03-16T09:42:05.933Z,91.38
2019-03-16T09:44:35.655Z,91.51
2019-03-16T09:47:05.878Z,91.37
2019-03-16T09:49:35.706Z,91.29
2019-03-16T09:52:05.490Z,91.15
2019-03-16T09:54:35.518Z,91.18
2019-03-16T09:57:05.381Z,91.08
2019-03-16T09:59:35.104Z,90.73
2019-03-16T10:02:05.219Z,90.34
2019-03-16T10:04:34.937Z,90.34
2019-03-16T10:07:05.157Z,90.22
2019-03-16T10:09:34.853Z,89.86
2019-03-16T10:12:05.026Z,89.86
2019-03-16T10:14:37.154Z,90.01
2019-03-16T10:17:06.138Z,89.95
2019-03-16T10:19:37.088Z,89.76
2019-03-16T10:22:06.892Z,89.90
2019-03-16T10:24:36.968Z,90.00
2019-03-16T10:27:06.725Z,90.05
2019-03-16T10:29:36.992Z,90.29
2019-03-16T10:32:06.657Z,90.15
2019-03-16T10:34:36.956Z,90.19
2019-03-16T10:37:06.708Z,89.85
2019-03-16T10:39:36.568Z,89.53
2019-03-16T10:42:09.810Z,89.08
2019-03-16T10:44:40.536Z,89.03
2019-03-16T10:47:10.374Z,89.00
2019-03-16T10:49:40.083Z,88.08
2019-03-16T10:52:09.789Z,87.99
2019-03-16T10:54:39.542Z,88.17
2019-03-16T10:57:09.436Z,87.80
2019-03-16T10:59:39.427Z,87.39
2019-03-16T11:02:09.104Z,87.35
2019-03-16T11:04:39.018Z,87.33
2019-03-16T11:07:08.703Z,86.97
2019-03-16T11:09:38.694Z,86.87
2019-03-16T11:12:08.455Z,86.54
2019-03-16T11:14:41.020Z,86.54
2019-03-16T11:17:09.509Z,86.52
2019-03-16T11:19:39.194Z,86.05
2019-03-16T11:22:08.939Z,85.75
2019-03-16T11:24:38.777Z,85.27
2019-03-16T11:27:08.478Z,85.37
2019-03-16T11:29:38.386Z,85.40
2019-03-16T11:32:08.040Z,85.15
2019-03-16T11:34:38.010Z,83.83
2019-03-16T11:37:07.683Z,84.25
2019-03-16T11:39:37.351Z,84.29
2019-03-16T11:42:07.457Z,84.45
2019-03-16T11:44:38.294Z,84.38
2019-03-16T11:47:07.992Z,84.45
2019-03-16T11:49:37.733Z,83.59
2019-03-16T11:52:15.664Z,83.34
2019-03-16T11:54:45.575Z,83.72
2019-03-16T11:57:15.296Z,83.54
2019-03-16T11:59:45.058Z,82.92
2019-03-16T12:02:15.166Z,83.22
2019-03-16T12:04:44.855Z,83.07
2019-03-16T12:07:14.795Z,82.85
2019-03-16T12:09:44.599Z,82.63
2019-03-16T12:12:14.514Z,82.59
2019-03-16T12:14:44.629Z,82.57
2019-03-16T12:17:14.307Z,82.12
2019-03-16T12:19:44.080Z,81.79
2019-03-16T12:22:13.868Z,81.89
2019-03-16T12:24:43.857Z,82.01
2019-03-16T12:27:13.531Z,82.53
2019-03-16T12:29:43.478Z,82.07
2019-03-16T12:32:13.151Z,81.96
2019-03-16T12:34:47.197Z,82.42
2019-03-16T12:37:16.914Z,82.51
2019-03-16T12:39:46.865Z,82.82
2019-03-16T12:42:16.540Z,81.48
2019-03-16T12:44:46.820Z,81.54
2019-03-16T12:47:16.823Z,81.18
2019-03-16T12:49:46.523Z,79.93
2019-03-16T12:52:16.184Z,79.73
2019-03-16T12:54:46.530Z,78.32
2019-03-16T12:57:16.506Z,78.26
2019-03-16T12:59:47.424Z,78.11
2019-03-16T13:02:17.676Z,77.81
2019-03-16T13:04:49.187Z,77.08
2019-03-16T13:07:18.861Z,76.84
2019-03-16T13:09:48.529Z,76.76
2019-03-16T13:12:18.230Z,76.91
2019-03-16T13:14:48.202Z,76.79
2019-03-16T13:17:17.909Z,76.62
2019-03-16T13:19:48.175Z,75.77
2019-03-16T13:22:17.849Z,76.48
2019-03-16T13:24:53.254Z,76.45
2019-03-16T13:27:24.489Z,76.39
2019-03-16T13:29:59.080Z,75.53
2019-03-16T13:32:25.851Z,75.46
2019-03-16T13:34:55.688Z,75.46
2019-03-16T13:37:25.643Z,75.67
2019-03-16T13:39:55.330Z,74.98
2019-03-16T13:42:25.268Z,75.48
2019-03-16T13:44:55.415Z,74.55
2019-03-16T13:47:25.274Z,74.67
2019-03-16T13:49:55.293Z,75.68
2019-03-16T13:52:25.017Z,75.49
2019-03-16T13:54:54.940Z,75.64
2019-03-16T13:57:24.779Z,75.18
2019-03-16T13:59:55.074Z,74.82
2019-03-16T14:02:25.740Z,75.06
2019-03-16T14:04:55.486Z,75.39
2019-03-16T14:07:26.347Z,75.07
2019-03-16T14:09:56.369Z,74.89
2019-03-16T14:12:26.592Z,75.49
2019-03-16T14:14:56.587Z,75.36
2019-03-16T14:17:26.386Z,75.24
2019-03-16T14:19:56.602Z,75.13
2019-03-16T14:22:26.597Z,75.29
2019-03-16T14:24:56.269Z,75.34
2019-03-16T14:27:26.258Z,74.73
2019-03-16T14:29:56.911Z,74.36
2019-03-16T14:32:26.579Z,73.57
2019-03-16T14:34:56.518Z,73.64
2019-03-16T14:37:26.495Z,74.07
2019-03-16T14:39:56.385Z,73.50
2019-03-16T14:42:26.096Z,73.25
2019-03-16T14:44:55.766Z,74.02
2019-03-16T14:47:25.655Z,73.13
2019-03-16T14:49:55.375Z,72.09
2019-03-16T14:52:25.288Z,72.79
2019-03-16T14:54:54.976Z,72.66
2019-03-16T14:57:24.659Z,72.65
2019-03-16T14:59:54.357Z,72.43
2019-03-16T15:02:24.022Z,71.86
2019-03-16T15:04:53.871Z,71.58
2019-03-16T15:07:23.533Z,72.28
2019-03-16T15:09:54.521Z,71.97
2019-03-16T15:12:24.263Z,71.71
2019-03-16T15:14:53.946Z,71.12
2019-03-16T15:17:25.512Z,71.87
2019-03-16T15:19:56.185Z,71.30
2019-03-16T15:22:25.866Z,70.66
2019-03-16T15:24:55.568Z,70.86
2019-03-16T15:27:25.486Z,70.59
2019-03-16T15:29:55.217Z,70.96
2019-03-16T15:32:24.904Z,70.45
2019-03-16T15:34:54.570Z,69.78
2019-03-16T15:37:24.262Z,70.08
2019-03-16T15:39:54.570Z,70.28
2019-03-16T15:42:24.261Z,70.37
2019-03-16T15:44:53.969Z,70.39
2019-03-16T15:47:23.891Z,70.83
2019-03-16T15:49:53.685Z,70.27
2019-03-16T15:52:23.351Z,70.63
2019-03-16T15:54:53.036Z,70.85
2019-03-16T15:57:22.742Z,71.17
2019-03-16T15:59:52.399Z,70.52
2019-03-16T16:02:22.070Z,70.23
2019-03-16T16:04:52.860Z,69.57
2019-03-16T16:07:22.608Z,70.32
2019-03-16T16:09:52.265Z,69.62
2019-03-16T16:12:23.384Z,69.60
2019-03-16T16:14:53.049Z,69.24
2019-03-16T16:17:22.968Z,68.83
2019-03-16T16:19:52.610Z,69.63
2019-03-16T16:22:22.494Z,69.64
2019-03-16T16:24:52.167Z,68.98
2019-03-16T16:27:24.048Z,68.99
2019-03-16T16:29:53.254Z,69.22
2019-03-16T16:32:22.919Z,69.32
2019-03-16T16:34:52.589Z,68.52
2019-03-16T16:37:22.806Z,68.86
2019-03-16T16:39:52.538Z,68.88
2019-03-16T16:42:22.621Z,69.06
2019-03-16T16:44:52.425Z,69.17
2019-03-16T16:47:22.143Z,69.45
2019-03-16T16:49:51.831Z,69.35
2019-03-16T16:52:21.502Z,69.33
2019-03-16T16:54:51.547Z,69.47
2019-03-16T16:57:21.562Z,69.66
2019-03-16T16:59:51.224Z,69.91
2019-03-16T17:02:20.920Z,70.08
2019-03-16T17:04:50.591Z,69.94
2019-03-16T17:07:20.267Z,70.00
2019-03-16T17:09:49.931Z,69.52
2019-03-16T17:12:19.924Z,69.56
2019-03-16T17:14:49.593Z,69.57
2019-03-16T17:17:19.286Z,69.77
2019-03-16T17:19:48.950Z,69.62
2019-03-16T17:22:18.621Z,69.07
2019-03-16T17:24:48.559Z,69.11
2019-03-16T17:27:18.278Z,68.87
2019-03-16T17:29:47.979Z,68.84
2019-03-16T17:32:17.641Z,69.16
2019-03-16T17:34:47.939Z,69.41
2019-03-16T17:37:17.595Z,69.50
2019-03-16T17:39:47.301Z,69.52
2019-03-16T17:42:17.208Z,69.69
2019-03-16T17:44:47.120Z,69.83
2019-03-16T17:47:16.792Z,69.86
2019-03-16T17:49:46.534Z,70.32
2019-03-16T17:52:16.186Z,70.49
2019-03-16T17:54:46.187Z,70.32
2019-03-16T17:57:15.861Z,70.61
2019-03-16T17:59:45.520Z,70.46
2019-03-16T18:02:15.419Z,70.55
2019-03-16T18:04:45.156Z,70.78
2019-03-16T18:07:14.978Z,70.50
2019-03-16T18:09:44.680Z,70.49
2019-03-16T18:12:14.340Z,70.42
2019-03-16T18:14:44.023Z,70.62
2019-03-16T18:17:13.687Z,70.57
2019-03-16T18:19:43.665Z,70.69
2019-03-16T18:22:13.373Z,70.96
2019-03-16T18:24:43.095Z,70.42
2019-03-16T18:27:12.795Z,70.71
2019-03-16T18:29:42.466Z,70.48
2019-03-16T18:32:12.140Z,70.08
2019-03-16T18:34:43.189Z,69.93
2019-03-16T18:37:12.855Z,69.50
2019-03-16T18:39:42.513Z,69.50
2019-03-16T18:42:12.386Z,69.55
2019-03-16T18:44:42.575Z,69.27
2019-03-16T18:47:12.661Z,69.41
2019-03-16T18:49:42.325Z,69.37
2019-03-16T18:52:12.234Z,69.25
2019-03-16T18:54:41.906Z,69.12
2019-03-16T18:57:11.594Z,68.96
2019-03-16T18:59:41.296Z,69.36
2019-03-16T19:02:20.252Z,68.83
2019-03-16T19:04:42.322Z,69.06
2019-03-16T19:07:12.310Z,69.15
2019-03-16T19:09:42.230Z,68.94
2019-03-16T19:12:11.896Z,69.07
2019-03-16T19:14:41.599Z,69.01
2019-03-16T19:17:11.296Z,69.01
2019-03-16T19:19:41.227Z,69.06
2019-03-16T19:22:12.476Z,68.98
2019-03-16T19:24:42.410Z,69.33
2019-03-16T19:27:12.351Z,69.32
2019-03-16T19:29:42.039Z,69.34
2019-03-16T19:32:11.707Z,69.25
2019-03-16T19:34:41.503Z,69.57
2019-03-16T19:37:11.871Z,69.33
2019-03-16T19:39:41.529Z,69.48
2019-03-16T19:42:11.493Z,69.59
2019-03-16T19:44:41.144Z,69.60
2019-03-16T19:47:10.872Z,69.74
2019-03-16T19:49:40.530Z,69.96
2019-03-16T19:52:10.210Z,70.11
2019-03-16T19:54:40.225Z,70.33
2019-03-16T19:57:16.155Z,70.36
2019-03-16T19:59:43.672Z,70.52
2019-03-16T20:02:14.316Z,70.31
2019-03-16T20:04:43.995Z,70.45
2019-03-16T20:07:19.260Z,70.25
2019-03-16T20:09:45.256Z,70.25
2019-03-16T20:12:14.916Z,70.18
2019-03-16T20:14:45.620Z,70.43
2019-03-16T20:17:15.293Z,70.33
2019-03-16T20:19:44.987Z,70.57
2019-03-16T20:22:14.656Z,70.24
2019-03-16T20:24:44.938Z,70.35
2019-03-16T20:27:14.598Z,70.54
2019-03-16T20:29:44.546Z,70.52
2019-03-16T20:32:14.296Z,70.39
2019-03-16T20:34:43.964Z,70.38
2019-03-16T20:37:13.645Z,70.49
2019-03-16T20:39:43.334Z,70.39
2019-03-16T20:42:13.042Z,70.50
2019-03-16T20:44:42.767Z,70.37
2019-03-16T20:47:12.430Z,70.26
2019-03-16T20:49:42.296Z,70.05
2019-03-16T20:52:11.969Z,70.29
2019-03-16T20:54:42.500Z,70.13
2019-03-16T20:57:13.411Z,70.09
2019-03-16T20:59:43.070Z,70.25
2019-03-16T21:02:12.757Z,70.21
2019-03-16T21:04:42.435Z,70.21
2019-03-16T21:07:12.120Z,70.19
2019-03-16T21:09:42.799Z,70.19
2019-03-16T21:12:12.504Z,70.22
2019-03-16T21:14:42.174Z,70.00
2019-03-16T21:17:12.312Z,70.14
2019-03-16T21:19:42.167Z,70.21
2019-03-16T21:22:11.848Z,70.19
2019-03-16T21:24:42.494Z,70.21
2019-03-16T21:27:12.172Z,70.21
2019-03-16T21:29:41.865Z,70.18
2019-03-16T21:32:11.529Z,69.84
2019-03-16T21:34:41.688Z,69.79
2019-03-16T21:37:11.366Z,69.81
2019-03-16T21:39:41.049Z,70.16
2019-03-16T21:42:10.913Z,70.27
2019-03-16T21:44:40.590Z,70.21
2019-03-16T21:47:10.353Z,70.25
2019-03-16T21:49:40.025Z,70.27
2019-03-16T21:52:09.691Z,70.26
2019-03-16T21:54:39.400Z,70.42
2019-03-16T21:57:09.356Z,70.24
2019-03-16T21:59:39.042Z,70.18
2019-03-16T22:02:09.105Z,70.20
2019-03-16T22:04:38.801Z,70.24
2019-03-16T22:07:09.174Z,69.97
2019-03-16T22:09:39.573Z,70.17
2019-03-16T22:12:09.330Z,70.04
2019-03-16T22:14:39.280Z,70.12
2019-03-16T22:17:09.192Z,70.02
2019-03-16T22:19:39.108Z,69.94
2019-03-16T22:22:08.907Z,69.91
2019-03-16T22:24:38.576Z,69.91
2019-03-16T22:27:08.246Z,70.00
2019-03-16T22:29:38.196Z,70.04
2019-03-16T22:32:08.196Z,70.10
2019-03-16T22:34:37.950Z,70.14
2019-03-16T22:37:07.617Z,70.13
2019-03-16T22:39:38.022Z,69.89
2019-03-16T22:42:08.089Z,69.73
2019-03-16T22:44:37.883Z,70.13
2019-03-16T22:47:08.439Z,70.07
2019-03-16T22:49:38.776Z,70.14
2019-03-16T22:52:08.632Z,70.17
2019-03-16T22:54:38.903Z,69.98
2019-03-16T22:57:08.611Z,69.89
2019-03-16T22:59:38.529Z,70.12
2019-03-16T23:02:08.818Z,69.82
2019-03-16T23:04:38.493Z,70.25
2019-03-16T23:07:08.161Z,70.26
2019-03-16T23:09:38.361Z,70.26
2019-03-16T23:12:08.106Z,70.32
2019-03-16T23:14:38.856Z,70.46
2019-03-16T23:17:09.237Z,70.64
2019-03-16T23:19:38.862Z,70.78
2019-03-16T23:22:08.527Z,70.54
2019-03-16T23:24:38.443Z,70.52
2019-03-16T23:27:08.203Z,70.51
2019-03-16T23:29:37.950Z,70.84
2019-03-16T23:32:08.080Z,70.80
2019-03-16T23:34:37.819Z,70.94
2019-03-16T23:37:07.532Z,70.89
2019-03-16T23:39:37.991Z,70.89
2019-03-16T23:42:07.666Z,71.11
2019-03-16T23:44:37.338Z,70.99
2019-03-16T23:47:08.589Z,71.11
2019-03-16T23:49:38.263Z,71.26
2019-03-16T23:52:07.930Z,71.01
2019-03-16T23:54:37.791Z,71.17
2019-03-16T23:57:08.158Z,70.96
2019-03-16T23:59:38.559Z,71.24
